createdAt,value
2018-06-20T00:01:27.596Z,84.28
2018-06-20T00:03:56.149Z,84.33
2018-06-20T00:06:24.785Z,84.76
2018-06-20T00:08:53.979Z,85.18
2018-06-20T00:11:24.494Z,85.82
2018-06-20T00:13:54.106Z,85.96
2018-06-20T00:16:22.730Z,86.63
2018-06-20T00:18:51.317Z,86.48
2018-06-20T00:21:19.957Z,87.21
2018-06-20T00:23:48.524Z,87.02
2018-06-20T00:26:17.227Z,87.10
2018-06-20T00:28:45.816Z,87.23
2018-06-20T00:31:14.422Z,87.60
2018-06-20T00:33:43.070Z,87.68
2018-06-20T00:36:11.851Z,87.95
2018-06-20T00:38:40.511Z,87.94
2018-06-20T00:41:09.297Z,88.19
2018-06-20T00:43:37.801Z,88.80
2018-06-20T00:46:06.324Z,88.50
2018-06-20T00:48:34.827Z,88.71
2018-06-20T00:51:03.365Z,89.01
2018-06-20T00:53:31.855Z,89.14
2018-06-20T00:56:11.549Z,89.05
2018-06-20T00:58:40.058Z,89.01
2018-06-20T01:01:08.560Z,89.14
2018-06-20T01:03:37.062Z,89.47
2018-06-20T01:06:05.719Z,89.70
2018-06-20T01:08:34.197Z,89.89
2018-06-20T01:11:02.694Z,89.69
2018-06-20T01:13:31.204Z,89.87
2018-06-20T01:15:59.709Z,89.58
2018-06-20T01:18:28.259Z,90.16
2018-06-20T01:20:56.772Z,89.99
2018-06-20T01:23:25.262Z,90.03
2018-06-20T01:25:53.757Z,90.30
2018-06-20T01:28:22.669Z,90.51
2018-06-20T01:30:52.430Z,90.19
2018-06-20T01:33:21.724Z,90.06
2018-06-20T01:35:50.421Z,90.08
2018-06-20T01:38:18.905Z,90.08
2018-06-20T01:40:47.386Z,90.36
2018-06-20T01:43:15.990Z,90.28
2018-06-20T01:45:44.461Z,90.29
2018-06-20T01:48:12.929Z,90.27
2018-06-20T01:50:41.426Z,90.23
2018-06-20T01:53:09.923Z,90.05
2018-06-20T01:55:38.477Z,90.17
2018-06-20T01:58:07.086Z,90.06
2018-06-20T02:00:35.711Z,90.06
2018-06-20T02:03:04.209Z,90.27
2018-06-20T02:05:32.698Z,90.56
2018-06-20T02:08:01.219Z,90.57
2018-06-20T02:10:29.726Z,90.23
2018-06-20T02:12:58.228Z,90.50
2018-06-20T02:15:26.750Z,90.38
2018-06-20T02:17:55.305Z,90.29
2018-06-20T02:20:23.865Z,90.39
2018-06-20T02:22:52.342Z,90.52
2018-06-20T02:25:20.862Z,90.62
2018-06-20T02:27:49.331Z,90.80
2018-06-20T02:30:17.890Z,90.74
2018-06-20T02:32:46.354Z,91.31
2018-06-20T02:35:14.850Z,91.42
2018-06-20T02:37:43.445Z,91.66
2018-06-20T02:40:11.924Z,91.27
2018-06-20T02:42:40.474Z,91.95
2018-06-20T02:45:08.948Z,92.04
2018-06-20T02:47:44.327Z,93.57
2018-06-20T02:50:13.869Z,92.65
2018-06-20T02:52:42.403Z,92.37
2018-06-20T02:55:10.954Z,92.48
2018-06-20T02:57:39.432Z,92.41
2018-06-20T03:00:08.189Z,92.37
2018-06-20T03:02:36.686Z,92.50
2018-06-20T03:05:05.464Z,92.48
2018-06-20T03:07:33.984Z,92.54
2018-06-20T03:10:02.505Z,92.59
2018-06-20T03:12:31.009Z,92.54
2018-06-20T03:15:02.433Z,92.45
2018-06-20T03:17:30.988Z,92.67
2018-06-20T03:19:59.494Z,92.51
2018-06-20T03:22:28.009Z,92.68
2018-06-20T03:24:56.554Z,93.07
2018-06-20T03:27:25.267Z,93.41
2018-06-20T03:29:53.815Z,93.25
2018-06-20T03:32:22.293Z,93.27
2018-06-20T03:34:50.909Z,93.38
2018-06-20T03:37:19.537Z,93.67
2018-06-20T03:39:48.030Z,93.34
2018-06-20T03:42:16.546Z,93.62
2018-06-20T03:44:45.206Z,93.41
2018-06-20T03:47:13.738Z,93.49
2018-06-20T03:49:42.215Z,93.57
2018-06-20T03:52:10.722Z,93.42
2018-06-20T03:54:39.209Z,93.19
2018-06-20T03:57:07.708Z,93.47
2018-06-20T03:59:36.219Z,93.06
2018-06-20T04:02:04.941Z,93.22
2018-06-20T04:04:33.446Z,93.39
2018-06-20T04:07:02.012Z,92.84
2018-06-20T04:09:30.529Z,92.96
2018-06-20T04:11:59.020Z,92.65
2018-06-20T04:14:27.545Z,92.91
2018-06-20T04:16:56.135Z,92.74
2018-06-20T04:19:24.662Z,92.89
2018-06-20T04:21:53.313Z,93.06
2018-06-20T04:24:21.785Z,92.75
2018-06-20T04:26:50.290Z,92.74
2018-06-20T04:29:18.941Z,92.34
2018-06-20T04:31:47.441Z,92.49
2018-06-20T04:34:15.926Z,92.37
2018-06-20T04:36:44.614Z,91.84
2018-06-20T04:39:13.127Z,91.56
2018-06-20T04:41:42.648Z,91.94
2018-06-20T04:44:11.261Z,91.71
2018-06-20T04:46:39.777Z,91.81
2018-06-20T04:49:08.417Z,91.28
2018-06-20T04:51:36.930Z,91.01
2018-06-20T04:54:06.170Z,90.85
2018-06-20T04:56:35.105Z,90.13
2018-06-20T04:59:03.614Z,89.81
2018-06-20T05:01:32.182Z,89.48
2018-06-20T05:04:02.925Z,88.16
2018-06-20T05:06:31.430Z,86.21
2018-06-20T05:09:02.142Z,85.32
2018-06-20T05:11:31.026Z,86.54
2018-06-20T05:13:59.677Z,85.38
2018-06-20T05:16:28.161Z,82.99
2018-06-20T05:19:00.307Z,83.67
2018-06-20T05:21:28.773Z,83.15
2018-06-20T05:23:57.709Z,83.97
2018-06-20T05:26:26.243Z,82.09
2018-06-20T05:28:54.738Z,82.87
2018-06-20T05:31:23.294Z,83.94
2018-06-20T05:33:51.781Z,84.60
2018-06-20T05:36:20.315Z,82.56
2018-06-20T05:38:50.294Z,78.91
2018-06-20T05:41:18.870Z,83.77
2018-06-20T05:43:47.392Z,80.44
2018-06-20T05:46:15.889Z,84.01
2018-06-20T05:48:44.523Z,80.16
2018-06-20T05:51:13.011Z,81.61
2018-06-20T05:53:41.536Z,76.60
2018-06-20T05:56:10.108Z,75.75
2018-06-20T05:58:39.875Z,78.53
2018-06-20T06:01:08.366Z,79.82
2018-06-20T06:03:38.530Z,77.15
2018-06-20T06:06:14.020Z,77.59
2018-06-20T06:08:42.861Z,79.90
2018-06-20T06:11:11.426Z,76.48
2018-06-20T06:13:40.156Z,77.37
2018-06-20T06:16:09.094Z,77.27
2018-06-20T06:18:37.858Z,74.37
2018-06-20T06:21:06.974Z,74.78
2018-06-20T06:23:35.558Z,72.76
2018-06-20T06:26:04.114Z,75.38
2018-06-20T06:28:32.595Z,73.77
2018-06-20T06:31:02.580Z,73.60
2018-06-20T06:33:31.148Z,70.92
2018-06-20T06:35:59.686Z,70.23
2018-06-20T06:38:28.152Z,74.50
2018-06-20T06:40:56.901Z,76.68
2018-06-20T06:43:25.934Z,75.19
2018-06-20T06:45:54.429Z,75.84
2018-06-20T06:48:22.933Z,75.29
2018-06-20T06:50:51.518Z,74.03
2018-06-20T06:53:20.419Z,70.88
2018-06-20T06:55:48.918Z,67.78
2018-06-20T06:58:17.753Z,70.56
2018-06-20T07:00:46.311Z,67.79
2018-06-20T07:03:14.813Z,70.48
2018-06-20T07:05:43.339Z,70.99
2018-06-20T07:08:11.913Z,73.47
2018-06-20T07:10:40.413Z,72.78
2018-06-20T07:13:08.934Z,72.86
2018-06-20T07:15:37.557Z,68.72
2018-06-20T07:18:06.041Z,68.12
2018-06-20T07:20:34.559Z,65.42
2018-06-20T07:23:03.270Z,68.10
2018-06-20T07:25:31.832Z,70.48
2018-06-20T07:28:00.454Z,70.16
2018-06-20T07:30:29.430Z,69.71
2018-06-20T07:32:57.939Z,69.91
2018-06-20T07:35:26.541Z,72.27
2018-06-20T07:37:55.049Z,69.52
2018-06-20T07:40:23.590Z,69.42
2018-06-20T07:42:52.098Z,70.60
2018-06-20T07:45:20.611Z,71.74
2018-06-20T07:47:49.173Z,72.24
2018-06-20T07:50:17.652Z,72.50
2018-06-20T07:52:46.186Z,71.70
2018-06-20T07:55:14.727Z,72.93
2018-06-20T07:57:43.722Z,71.33
2018-06-20T08:00:17.573Z,73.47
2018-06-20T08:03:02.682Z,71.88
2018-06-20T08:05:36.348Z,73.95
2018-06-20T08:08:11.425Z,71.97
2018-06-20T08:10:45.097Z,72.65
2018-06-20T08:13:18.838Z,69.60
2018-06-20T08:15:52.582Z,71.05
2018-06-20T08:18:26.445Z,71.76
2018-06-20T08:20:54.969Z,70.12
2018-06-20T08:23:24.143Z,68.21
2018-06-20T08:25:52.695Z,68.65
2018-06-20T08:28:24.578Z,70.20
2018-06-20T08:30:53.203Z,69.74
2018-06-20T08:33:21.926Z,72.04
2018-06-20T08:35:50.434Z,71.46
2018-06-20T08:38:19.010Z,68.97
2018-06-20T08:40:47.826Z,68.42
2018-06-20T08:43:16.888Z,69.02
2018-06-20T08:45:45.417Z,69.15
2018-06-20T08:48:13.905Z,69.46
2018-06-20T08:50:42.404Z,68.29
2018-06-20T08:53:11.027Z,66.07
2018-06-20T08:55:40.065Z,64.49
2018-06-20T08:58:09.118Z,64.80
2018-06-20T09:00:42.972Z,65.40
2018-06-20T09:03:11.478Z,64.78
2018-06-20T09:05:45.317Z,66.36
2018-06-20T09:08:21.067Z,66.21
2018-06-20T09:10:54.782Z,67.65
2018-06-20T09:13:28.598Z,67.28
2018-06-20T09:16:06.390Z,67.47
2018-06-20T09:18:40.606Z,66.88
2018-06-20T09:21:09.224Z,65.14
2018-06-20T09:23:37.707Z,65.53
2018-06-20T09:26:06.285Z,65.56
2018-06-20T09:28:34.795Z,66.67
2018-06-20T09:31:03.777Z,65.86
2018-06-20T09:33:32.274Z,65.25
2018-06-20T09:36:00.757Z,65.89
2018-06-20T09:38:33.145Z,65.26
2018-06-20T09:41:01.638Z,63.14
2018-06-20T09:43:30.157Z,65.32
2018-06-20T09:45:58.691Z,64.30
2018-06-20T09:48:28.288Z,65.30
2018-06-20T09:50:58.337Z,65.19
2018-06-20T09:53:28.050Z,64.00
2018-06-20T09:55:56.549Z,62.81
2018-06-20T09:58:25.106Z,65.44
2018-06-20T10:00:58.865Z,62.98
2018-06-20T10:03:32.962Z,63.10
2018-06-20T10:06:06.724Z,64.42
2018-06-20T10:08:41.043Z,63.04
2018-06-20T10:11:14.935Z,62.25
2018-06-20T10:13:46.854Z,60.88
2018-06-20T10:16:16.075Z,60.04
2018-06-20T10:18:44.571Z,62.24
2018-06-20T10:21:13.674Z,62.34
2018-06-20T10:23:42.146Z,64.27
2018-06-20T10:26:11.497Z,65.13
2018-06-20T10:28:40.039Z,62.79
2018-06-20T10:31:09.504Z,65.77
2018-06-20T10:33:38.137Z,64.43
2018-06-20T10:36:08.039Z,65.92
2018-06-20T10:38:36.970Z,64.12
2018-06-20T10:41:05.503Z,64.71
2018-06-20T10:43:34.006Z,63.52
2018-06-20T10:46:07.892Z,63.71
2018-06-20T10:48:36.750Z,65.17
2018-06-20T10:51:05.288Z,65.77
2018-06-20T10:53:33.817Z,64.30
2018-06-20T10:56:02.299Z,64.84
2018-06-20T10:58:36.044Z,63.97
2018-06-20T11:01:10.906Z,64.63
2018-06-20T11:03:44.759Z,62.63
2018-06-20T11:06:18.389Z,63.08
2018-06-20T11:08:52.347Z,65.64
2018-06-20T11:11:26.006Z,64.86
2018-06-20T11:13:54.592Z,63.96
2018-06-20T11:16:23.158Z,62.94
2018-06-20T11:18:54.042Z,62.76
2018-06-20T11:21:22.550Z,62.94
2018-06-20T11:23:52.248Z,63.80
2018-06-20T11:26:20.756Z,63.10
2018-06-20T11:28:49.274Z,63.01
2018-06-20T11:31:17.829Z,64.35
2018-06-20T11:33:46.382Z,62.63
2018-06-20T11:36:15.054Z,62.82
2018-06-20T11:38:43.560Z,62.15
2018-06-20T11:41:12.082Z,63.21
2018-06-20T11:43:40.975Z,64.45
2018-06-20T11:46:14.813Z,64.09
2018-06-20T11:48:43.305Z,63.52
2018-06-20T11:51:11.807Z,63.78
2018-06-20T11:53:40.346Z,63.58
2018-06-20T11:56:09.329Z,63.00
2018-06-20T11:58:42.943Z,61.88
2018-06-20T12:01:16.768Z,63.87
2018-06-20T12:03:50.626Z,61.76
2018-06-20T12:06:24.245Z,61.24
2018-06-20T12:09:01.814Z,62.41
2018-06-20T12:11:35.539Z,62.93
2018-06-20T12:14:09.146Z,62.20
2018-06-20T12:16:38.568Z,61.31
2018-06-20T12:19:12.588Z,60.76
2018-06-20T12:21:46.417Z,59.75
2018-06-20T12:24:19.998Z,59.38
2018-06-20T12:26:53.602Z,62.07
2018-06-20T12:29:27.494Z,61.26
2018-06-20T12:32:02.850Z,60.49
2018-06-20T12:34:36.547Z,59.63
2018-06-20T12:37:11.287Z,60.22
2018-06-20T12:39:38.890Z,60.73
2018-06-20T12:42:12.631Z,60.49
2018-06-20T12:44:46.531Z,58.97
2018-06-20T12:47:23.113Z,59.07
2018-06-20T12:49:59.202Z,58.26
2018-06-20T12:52:27.749Z,59.23
2018-06-20T12:54:56.243Z,58.51
2018-06-20T12:57:24.805Z,60.97
2018-06-20T12:59:54.248Z,60.73
2018-06-20T13:02:22.875Z,60.98
2018-06-20T13:04:51.830Z,59.98
2018-06-20T13:07:20.395Z,55.69
2018-06-20T13:09:48.877Z,58.86
2018-06-20T13:12:17.352Z,58.49
2018-06-20T13:14:45.878Z,58.45
2018-06-20T13:17:14.445Z,57.75
2018-06-20T13:19:43.028Z,57.78
2018-06-20T13:22:12.434Z,58.39
2018-06-20T13:24:40.947Z,58.41
2018-06-20T13:27:10.109Z,58.15
2018-06-20T13:29:38.605Z,58.02
2018-06-20T13:32:12.378Z,57.58
2018-06-20T13:34:46.289Z,58.28
2018-06-20T13:37:20.148Z,57.93
2018-06-20T13:39:54.555Z,58.51
2018-06-20T13:42:28.371Z,58.51
2018-06-20T13:45:01.072Z,60.24
2018-06-20T13:47:34.631Z,58.72
2018-06-20T13:50:03.190Z,59.56
2018-06-20T13:52:31.686Z,58.50
2018-06-20T13:55:00.205Z,57.81
2018-06-20T13:57:28.881Z,58.51
2018-06-20T13:59:57.382Z,57.96
2018-06-20T14:02:25.878Z,57.72
2018-06-20T14:04:54.406Z,58.75
2018-06-20T14:07:24.890Z,58.02
2018-06-20T14:09:53.394Z,57.42
2018-06-20T14:12:23.391Z,58.43
2018-06-20T14:14:52.600Z,58.40
2018-06-20T14:17:21.186Z,58.14
2018-06-20T14:19:54.855Z,59.04
2018-06-20T14:22:23.374Z,57.76
2018-06-20T14:24:51.887Z,56.86
2018-06-20T14:27:20.536Z,57.67
2018-06-20T14:29:49.490Z,56.86
2018-06-20T14:32:23.193Z,56.10
2018-06-20T14:34:56.896Z,56.94
2018-06-20T14:37:30.987Z,57.16
2018-06-20T14:40:04.705Z,57.99
2018-06-20T14:42:39.467Z,56.80
2018-06-20T14:45:14.208Z,57.19
2018-06-20T14:47:42.702Z,57.11
2018-06-20T14:50:11.218Z,56.35
2018-06-20T14:52:40.400Z,57.06
2018-06-20T14:55:08.925Z,56.56
2018-06-20T14:57:37.430Z,57.00
2018-06-20T15:00:06.719Z,56.39
2018-06-20T15:02:35.208Z,55.85
2018-06-20T15:05:03.866Z,56.68
2018-06-20T15:07:32.363Z,55.87
2018-06-20T15:10:01.255Z,55.44
2018-06-20T15:12:29.769Z,55.18
2018-06-20T15:14:58.371Z,54.99
2018-06-20T15:17:30.548Z,55.71
2018-06-20T15:19:59.146Z,55.46
2018-06-20T15:22:31.917Z,55.46
2018-06-20T15:25:00.390Z,55.44
2018-06-20T15:27:34.209Z,54.82
2018-06-20T15:30:08.216Z,54.17
2018-06-20T15:32:42.113Z,54.93
2018-06-20T15:35:19.469Z,53.93
2018-06-20T15:37:53.218Z,54.53
2018-06-20T15:40:23.767Z,54.53
2018-06-20T15:42:52.365Z,55.57
2018-06-20T15:45:21.068Z,56.26
2018-06-20T15:47:49.603Z,54.52
2018-06-20T15:50:18.117Z,53.45
2018-06-20T15:52:46.738Z,53.55
2018-06-20T15:55:19.174Z,53.44
2018-06-20T15:57:47.713Z,54.68
2018-06-20T16:00:16.263Z,54.58
2018-06-20T16:02:45.394Z,54.91
2018-06-20T16:05:14.082Z,53.87
2018-06-20T16:07:42.628Z,54.94
2018-06-20T16:10:15.313Z,53.84
2018-06-20T16:12:43.860Z,54.24
2018-06-20T16:15:12.417Z,54.21
2018-06-20T16:17:40.950Z,55.48
2018-06-20T16:20:18.070Z,55.13
2018-06-20T16:22:51.983Z,54.63
2018-06-20T16:25:25.849Z,54.50
2018-06-20T16:27:59.457Z,55.05
2018-06-20T16:30:34.619Z,54.04
2018-06-20T16:33:03.231Z,53.81
2018-06-20T16:35:31.729Z,54.80
2018-06-20T16:38:00.623Z,54.99
2018-06-20T16:40:29.394Z,54.58
2018-06-20T16:42:57.974Z,54.08
2018-06-20T16:45:26.496Z,54.09
2018-06-20T16:47:54.993Z,54.10
2018-06-20T16:50:25.430Z,54.29
2018-06-20T16:52:53.975Z,54.40
2018-06-20T16:55:22.582Z,52.38
2018-06-20T16:57:51.113Z,52.77
2018-06-20T17:00:19.602Z,52.75
2018-06-20T17:02:48.204Z,53.27
2018-06-20T17:05:16.767Z,53.57
2018-06-20T17:07:45.266Z,53.26
2018-06-20T17:10:13.796Z,52.95
2018-06-20T17:12:47.618Z,53.79
2018-06-20T17:15:21.591Z,53.90
2018-06-20T17:18:04.521Z,52.40
2018-06-20T17:20:38.445Z,52.78
2018-06-20T17:23:12.126Z,52.83
2018-06-20T17:25:44.088Z,53.01
2018-06-20T17:28:12.736Z,52.93
2018-06-20T17:30:46.317Z,53.04
2018-06-20T17:33:14.932Z,52.51
2018-06-20T17:35:43.482Z,53.11
2018-06-20T17:38:12.023Z,53.23
2018-06-20T17:40:40.570Z,53.19
2018-06-20T17:43:09.502Z,52.92
2018-06-20T17:45:38.013Z,52.92
2018-06-20T17:48:06.497Z,52.67
2018-06-20T17:50:35.006Z,53.17
2018-06-20T17:53:03.549Z,52.43
2018-06-20T17:55:32.071Z,50.79
2018-06-20T17:58:00.555Z,49.19
2018-06-20T18:00:29.090Z,48.48
2018-06-20T18:02:57.692Z,48.84
2018-06-20T18:05:31.401Z,47.75
2018-06-20T18:08:05.170Z,51.95
2018-06-20T18:11:40.938Z,50.60
2018-06-20T18:14:14.747Z,49.59
2018-06-20T18:16:49.539Z,49.94
2018-06-20T18:19:18.224Z,47.35
2018-06-20T18:21:46.772Z,51.22
2018-06-20T18:24:15.287Z,52.26
2018-06-20T18:26:43.773Z,53.14
2018-06-20T18:29:12.245Z,55.10
2018-06-20T18:31:40.782Z,54.98
2018-06-20T18:34:09.261Z,55.80
2018-06-20T18:36:37.726Z,58.01
2018-06-20T18:39:08.111Z,58.17
2018-06-20T18:41:36.729Z,58.18
2018-06-20T18:44:05.409Z,59.12
2018-06-20T18:46:33.913Z,59.00
2018-06-20T18:49:02.443Z,59.09
2018-06-20T18:51:32.685Z,60.87
2018-06-20T18:54:01.209Z,58.78
2018-06-20T18:56:29.819Z,58.69
2018-06-20T18:59:03.532Z,59.47
2018-06-20T19:01:37.325Z,58.95
2018-06-20T19:04:11.165Z,59.00
2018-06-20T19:06:45.093Z,58.48
2018-06-20T19:09:18.430Z,58.41
2018-06-20T19:11:47.401Z,58.91
2018-06-20T19:14:15.860Z,59.64
2018-06-20T19:16:45.042Z,60.35
2018-06-20T19:19:13.620Z,60.32
2018-06-20T19:21:42.106Z,57.41
2018-06-20T19:24:10.794Z,60.06
2018-06-20T19:26:39.341Z,59.96
2018-06-20T19:29:07.821Z,59.01
2018-06-20T19:31:36.384Z,60.31
2018-06-20T19:34:04.930Z,61.63
2018-06-20T19:36:33.544Z,62.52
2018-06-20T19:39:06.248Z,62.89
2018-06-20T19:41:34.775Z,63.38
2018-06-20T19:44:08.455Z,64.64
2018-06-20T19:46:36.942Z,66.01
2018-06-20T19:49:05.465Z,66.92
2018-06-20T19:51:33.977Z,68.33
2018-06-20T19:54:02.490Z,67.84
2018-06-20T19:56:31.112Z,68.26
2018-06-20T19:58:59.852Z,69.71
2018-06-20T20:01:28.382Z,70.46
2018-06-20T20:03:57.009Z,71.23
2018-06-20T20:06:25.493Z,71.76
2018-06-20T20:08:55.825Z,72.89
2018-06-20T20:11:24.350Z,73.14
2018-06-20T20:13:52.828Z,73.84
2018-06-20T20:16:21.431Z,73.97
2018-06-20T20:18:50.585Z,74.26
2018-06-20T20:21:19.071Z,73.95
2018-06-20T20:23:47.549Z,74.42
2018-06-20T20:26:16.050Z,75.28
2018-06-20T20:28:44.562Z,75.67
2018-06-20T20:31:13.037Z,75.76
2018-06-20T20:33:41.541Z,75.84
2018-06-20T20:36:10.102Z,74.75
2018-06-20T20:38:38.629Z,75.56
2018-06-20T20:41:07.119Z,76.36
2018-06-20T20:43:35.938Z,76.98
2018-06-20T20:46:04.477Z,77.16
2018-06-20T20:48:33.061Z,77.41
2018-06-20T20:51:01.604Z,77.29
2018-06-20T20:53:30.090Z,77.04
2018-06-20T20:55:58.654Z,77.26
2018-06-20T20:58:27.230Z,77.05
2018-06-20T21:00:55.849Z,77.93
2018-06-20T21:03:24.342Z,77.86
2018-06-20T21:05:52.826Z,78.15
2018-06-20T21:08:21.494Z,79.05
2018-06-20T21:10:49.965Z,79.69
2018-06-20T21:13:18.454Z,79.97
2018-06-20T21:15:46.982Z,79.74
2018-06-20T21:18:15.478Z,79.94
2018-06-20T21:20:43.962Z,80.08
2018-06-20T21:23:12.527Z,80.77
2018-06-20T21:25:41.014Z,81.08
2018-06-20T21:28:09.761Z,80.75
2018-06-20T21:30:38.591Z,81.31
2018-06-20T21:33:07.160Z,82.16
2018-06-20T21:35:35.663Z,81.94
2018-06-20T21:38:04.242Z,82.00
2018-06-20T21:40:32.713Z,82.44
2018-06-20T21:43:01.184Z,81.05
2018-06-20T21:45:29.781Z,81.73
2018-06-20T21:47:58.420Z,81.21
2018-06-20T21:50:26.898Z,82.03
2018-06-20T21:52:55.401Z,82.09
2018-06-20T21:55:25.448Z,82.44
2018-06-20T21:57:53.994Z,83.42
2018-06-20T22:00:26.323Z,83.11
2018-06-20T22:02:54.945Z,83.45
2018-06-20T22:05:26.158Z,83.39
2018-06-20T22:07:54.641Z,83.30
2018-06-20T22:10:23.162Z,83.54
2018-06-20T22:12:51.772Z,83.80
2018-06-20T22:15:20.344Z,84.28
2018-06-20T22:17:51.178Z,83.66
2018-06-20T22:20:19.718Z,83.81
2018-06-20T22:22:48.179Z,83.94
2018-06-20T22:25:16.742Z,84.87
2018-06-20T22:27:45.350Z,85.17
2018-06-20T22:30:13.824Z,85.44
2018-06-20T22:32:43.485Z,85.44
2018-06-20T22:35:11.986Z,85.55
2018-06-20T22:37:40.536Z,85.04
2018-06-20T22:40:09.008Z,85.15
2018-06-20T22:42:37.594Z,85.26
2018-06-20T22:45:06.441Z,85.48
2018-06-20T22:47:34.933Z,85.54
2018-06-20T22:50:03.565Z,85.56
2018-06-20T22:52:32.218Z,85.54
2018-06-20T22:55:00.700Z,85.71
2018-06-20T22:57:29.218Z,85.82
2018-06-20T23:00:01.539Z,85.45
2018-06-20T23:02:30.123Z,85.40
2018-06-20T23:04:58.613Z,85.40
2018-06-20T23:07:27.215Z,85.71
2018-06-20T23:09:56.779Z,85.26
2018-06-20T23:12:25.309Z,85.12
2018-06-20T23:14:53.917Z,85.53
2018-06-20T23:17:22.387Z,85.39
2018-06-20T23:19:50.887Z,85.63
2018-06-20T23:22:19.510Z,85.80
2018-06-20T23:24:47.978Z,85.24
2018-06-20T23:27:16.436Z,85.94
2018-06-20T23:29:44.970Z,86.10
2018-06-20T23:32:13.467Z,86.11
2018-06-20T23:34:41.987Z,86.05
2018-06-20T23:37:10.595Z,86.04
2018-06-20T23:39:39.109Z,85.77
2018-06-20T23:42:07.683Z,85.71
2018-06-20T23:44:36.161Z,85.91
2018-06-20T23:47:04.689Z,86.02
2018-06-20T23:49:33.217Z,86.21
2018-06-20T23:52:02.009Z,86.30
2018-06-20T23:54:30.541Z,85.68
2018-06-20T23:56:59.034Z,85.98
2018-06-20T23:59:27.528Z,86.31
